National Weather Service United States Department of Commerce

 

Aviation Weather Center TAFs Radar Soundings/Model Data Soaring
NWS Wichita Home Page Hazardous Weather Outlook NWS Graphical Forecasts

 

Wichita (ICT)
Hutchinson (HUT)
Tactical Decision Aid
 
Tactical Decision Aid
 

 
000
FTUS43 KICT 191725
TAFICT
TAF
KICT 191725Z 1918/2018 35012KT P6SM SKC
FM192300 04007KT P6SM SKC
FM200800 15006KT P6SM SKC
FM201400 16012KT P6SM SCT150=
 
302
FTUS43 KICT 191725
TAFHUT
TAF
KHUT 191725Z 1918/2018 36011KT P6SM SKC
FM192300 07006KT P6SM SKC
FM201300 15012KT P6SM SCT200
FM201600 17016KT P6SM BKN150=
Salina (SLN) Russell (RSL)
Tactical Decision Aid
Tactical Decision Aid

 
000
FTUS43 KICT 191725
TAFSLN
TAF
KSLN 191725Z 1918/2018 35010KT P6SM SKC
FM192200 02006KT P6SM SKC
FM200600 16006KT P6SM SKC
FM201200 16012KT P6SM SCT200
FM201500 16015G23KT P6SM BKN130=

 
304
FTUS43 KICT 191725
TAFRSL
TAF
KRSL 191725Z 1918/2018 33008KT P6SM SKC
FM201200 17018KT P6SM SCT200 WS020/19045KT
FM201500 18018G26KT P6SM BKN200=
Chanute (CNU) Great Bend (GBD)
Tactical Decision Aid
Tactical Decision Aid

 
300
FTUS43 KICT 191725
TAFCNU
TAF
KCNU 191725Z 1918/2018 32008KT P6SM SCT070
FM192300 03007KT P6SM FEW200
FM200700 VRB03KT 1 1/2SM BR FEW045
FM200900 VRB03KT 3/4SM BR SCT003 OVC015
FM201400 14009KT P6SM SCT003 BKN015=

 
000
FTUS43 KICT 191725
TAFGBD
TAF
KGBD 191725Z 1918/2018 35009KT P6SM SKC
FM201100 16016KT P6SM SCT250 WS020/18045KT
FM201500 19018G27KT P6SM BKN200=
 
NWS Wichita Aviation Forecast Discussion

 

 

IMPORTANT: This page is a tool to help pilots better visualize weather and weather-related hazards, and is not a substitute for a weather briefing obtained from a Flight Service Station (1-800-WXBRIEF). The information contained here does not meet the FAA requirements for a pre-flight weather brief. Therefore, it is important that pilots call and obtain a briefing from an FAA Flight Service Specialist.